createdAt,value
2022-09-20T00:00:09.118Z,101225.22
2022-09-20T00:02:35.276Z,101221.97
2022-09-20T00:05:01.411Z,101233.50
2022-09-20T00:07:27.611Z,101226.81
2022-09-20T00:09:53.773Z,101227.63
2022-09-20T00:12:19.882Z,101225.13
2022-09-20T00:14:46.035Z,101227.81
2022-09-20T00:17:12.148Z,101224.50
2022-09-20T00:19:38.270Z,101223.63
2022-09-20T00:22:04.403Z,101220.25
2022-09-20T00:24:30.534Z,101231.78
2022-09-20T00:26:56.657Z,101228.41
2022-09-20T00:29:22.795Z,101235.41
2022-09-20T00:31:49.019Z,101237.09
2022-09-20T00:34:15.155Z,101243.78
2022-09-20T00:36:41.271Z,101239.66
2022-09-20T00:39:07.415Z,101237.84
2022-09-20T00:41:33.555Z,101232.75
2022-09-20T00:43:59.699Z,101239.72
2022-09-20T00:46:25.886Z,101244.13
2022-09-20T00:48:53.419Z,101238.00
2022-09-20T00:51:19.576Z,101243.22
2022-09-20T00:53:45.674Z,101244.13
2022-09-20T00:56:11.787Z,101231.16
2022-09-20T00:58:37.959Z,101235.50
2022-09-20T01:01:04.111Z,101240.91
2022-09-20T01:03:30.293Z,101232.19
2022-09-20T01:05:56.400Z,101230.50
2022-09-20T01:08:22.504Z,101235.75
2022-09-20T01:10:48.630Z,101230.44
2022-09-20T01:13:14.748Z,101233.84
2022-09-20T01:15:40.887Z,101242.44
2022-09-20T01:18:07.011Z,101239.88
2022-09-20T01:20:33.314Z,101238.16
2022-09-20T01:22:59.418Z,101241.56
2022-09-20T01:25:25.566Z,101236.31
2022-09-20T01:27:51.695Z,101232.84
2022-09-20T01:30:17.790Z,101228.41
2022-09-20T01:32:43.925Z,101233.53
2022-09-20T01:35:10.030Z,101236.09
2022-09-20T01:37:36.180Z,101236.81
2022-09-20T01:40:02.346Z,101229.78
2022-09-20T01:42:28.525Z,101238.47
2022-09-20T01:44:54.673Z,101230.53
2022-09-20T01:47:20.805Z,101235.63
2022-09-20T01:49:46.913Z,101230.41
2022-09-20T01:52:13.040Z,101238.34
2022-09-20T01:54:39.190Z,101226.19
2022-09-20T01:57:05.304Z,101234.84
2022-09-20T01:59:31.920Z,101234.00
2022-09-20T02:01:58.361Z,101228.84
2022-09-20T02:04:24.568Z,101229.72
2022-09-20T02:06:50.687Z,101229.00
2022-09-20T02:09:16.866Z,101237.69
2022-09-20T02:11:42.999Z,101225.69
2022-09-20T02:14:09.133Z,101228.41
2022-09-20T02:16:35.333Z,101233.69
2022-09-20T02:19:01.797Z,101226.75
2022-09-20T02:21:27.926Z,101228.59
2022-09-20T02:23:54.113Z,101229.47
2022-09-20T02:26:20.240Z,101230.28
2022-09-20T02:28:46.375Z,101225.13
2022-09-20T02:31:12.567Z,101217.34
2022-09-20T02:33:38.774Z,101226.78
2022-09-20T02:36:04.887Z,101225.88
2022-09-20T02:38:31.035Z,101226.03
2022-09-20T02:40:57.187Z,101233.03
2022-09-20T02:43:23.290Z,101231.34
2022-09-20T02:45:49.558Z,101234.00
2022-09-20T02:48:15.716Z,101230.34
2022-09-20T02:50:41.843Z,101226.03
2022-09-20T02:53:07.956Z,101234.63
2022-09-20T02:55:34.084Z,101232.94
2022-09-20T02:58:00.191Z,101237.28
2022-09-20T03:00:26.341Z,101241.69
2022-09-20T03:02:52.448Z,101245.97
2022-09-20T03:05:18.572Z,101241.72
2022-09-20T03:07:44.704Z,101242.72
2022-09-20T03:10:10.809Z,101243.53
2022-09-20T03:12:36.942Z,101250.41
2022-09-20T03:15:03.060Z,101247.88
2022-09-20T03:17:29.191Z,101251.34
2022-09-20T03:19:55.327Z,101252.19
2022-09-20T03:22:21.445Z,101259.09
2022-09-20T03:24:47.578Z,101259.22
2022-09-20T03:27:13.715Z,101263.59
2022-09-20T03:29:39.872Z,101264.56
2022-09-20T03:32:06.076Z,101266.31
2022-09-20T03:34:32.228Z,101254.25
2022-09-20T03:36:58.385Z,101266.47
2022-09-20T03:39:24.489Z,101268.16
2022-09-20T03:41:50.612Z,101269.19
2022-09-20T03:44:16.786Z,101267.53
2022-09-20T03:46:42.887Z,101263.22
2022-09-20T03:49:09.013Z,101264.13
2022-09-20T03:51:35.144Z,101261.47
2022-09-20T03:54:01.266Z,101255.41
2022-09-20T03:56:27.378Z,101264.22
2022-09-20T03:58:53.525Z,101265.97
2022-09-20T04:01:19.801Z,101270.31
2022-09-20T04:03:46.120Z,101254.06
2022-09-20T04:06:12.224Z,101259.50
2022-09-20T04:08:40.381Z,101253.53
2022-09-20T04:11:06.674Z,101261.25
2022-09-20T04:13:32.789Z,101263.75
2022-09-20T04:15:58.922Z,101261.16
2022-09-20T04:18:25.040Z,101264.94
2022-09-20T04:20:51.173Z,101264.31
2022-09-20T04:23:17.286Z,101258.41
2022-09-20T04:25:44.285Z,101264.75
2022-09-20T04:28:10.491Z,101262.38
2022-09-20T04:30:36.606Z,101265.13
2022-09-20T04:33:02.733Z,101263.56
2022-09-20T04:35:28.852Z,101265.38
2022-09-20T04:37:55.011Z,101264.75
2022-09-20T04:40:21.186Z,101273.72
2022-09-20T04:42:47.344Z,101278.88
2022-09-20T04:45:13.475Z,101279.75
2022-09-20T04:47:39.618Z,101278.25
2022-09-20T04:50:05.745Z,101288.09
2022-09-20T04:52:34.843Z,101292.44
2022-09-20T04:55:01.008Z,101295.97
2022-09-20T04:57:27.124Z,101286.53
2022-09-20T04:59:53.255Z,101295.22
2022-09-20T05:02:19.473Z,101294.56
2022-09-20T05:04:45.627Z,101312.78
2022-09-20T05:07:11.770Z,101312.00
2022-09-20T05:09:37.929Z,101312.84
2022-09-20T05:12:04.058Z,101314.69
2022-09-20T05:17:01.283Z,101313.94
2022-09-20T05:19:27.476Z,101318.47
2022-09-20T05:21:53.596Z,101327.19
2022-09-20T05:24:19.740Z,101319.44
2022-09-20T05:26:45.876Z,101325.50
2022-09-20T05:29:11.976Z,101323.84
2022-09-20T05:31:38.181Z,101327.41
2022-09-20T05:34:04.374Z,101324.78
2022-09-20T05:36:34.448Z,101334.31
2022-09-20T05:39:03.392Z,101333.53
2022-09-20T05:41:29.978Z,101337.88
2022-09-20T05:43:56.136Z,101339.56
2022-09-20T05:46:22.268Z,101345.81
2022-09-20T05:48:48.383Z,101336.16
2022-09-20T05:51:14.603Z,101342.13
2022-09-20T05:53:40.765Z,101347.19
2022-09-20T05:56:06.959Z,101350.59
2022-09-20T05:58:33.146Z,101346.97
2022-09-20T06:00:59.862Z,101349.44
2022-09-20T06:03:26.051Z,101353.63
2022-09-20T06:05:52.167Z,101348.31
2022-09-20T06:08:20.597Z,101355.78
2022-09-20T06:10:46.779Z,101353.75
2022-09-20T06:13:12.897Z,101349.97
2022-09-20T06:15:39.059Z,101347.75
2022-09-20T06:18:05.163Z,101352.22
2022-09-20T06:20:31.269Z,101348.94
2022-09-20T06:22:57.418Z,101347.66
2022-09-20T06:25:23.544Z,101349.28
2022-09-20T06:27:49.862Z,101346.75
2022-09-20T06:30:15.994Z,101342.75
2022-09-20T06:32:42.123Z,101343.28
2022-09-20T06:35:08.289Z,101342.53
2022-09-20T06:37:34.408Z,101349.38
2022-09-20T06:40:00.564Z,101343.84
2022-09-20T06:42:27.409Z,101355.91
2022-09-20T06:44:53.630Z,101350.47
2022-09-20T06:47:19.800Z,101350.34
2022-09-20T06:49:46.000Z,101361.75
2022-09-20T06:52:12.138Z,101353.06
2022-09-20T06:54:38.283Z,101362.09
2022-09-20T06:57:04.425Z,101357.44
2022-09-20T06:59:30.621Z,101350.88
2022-09-20T07:01:56.789Z,101354.47
2022-09-20T07:04:22.943Z,101352.97
2022-09-20T07:06:49.071Z,101360.38
2022-09-20T07:09:15.205Z,101357.41
2022-09-20T07:11:41.371Z,101354.75
2022-09-20T07:14:07.565Z,101357.00
2022-09-20T07:16:33.743Z,101361.75
2022-09-20T07:18:59.906Z,101360.47
2022-09-20T07:21:26.056Z,101355.97
2022-09-20T07:23:52.252Z,101357.09
2022-09-20T07:26:18.438Z,101362.09
2022-09-20T07:28:44.566Z,101356.22
2022-09-20T07:31:10.695Z,101373.13
2022-09-20T07:33:36.852Z,101371.91
2022-09-20T07:36:02.993Z,101373.56
2022-09-20T07:38:29.118Z,101370.44
2022-09-20T07:40:55.277Z,101380.66
2022-09-20T07:43:21.407Z,101383.53
2022-09-20T07:45:47.573Z,101379.47
2022-09-20T07:48:13.713Z,101378.53
2022-09-20T07:50:39.848Z,101380.19
2022-09-20T07:53:05.955Z,101386.28
2022-09-20T07:55:32.093Z,101384.09
2022-09-20T07:57:58.204Z,101386.78
2022-09-20T08:00:24.364Z,101392.53
2022-09-20T08:02:50.500Z,101396.44
2022-09-20T08:05:16.641Z,101400.00
2022-09-20T08:07:42.800Z,101396.94
2022-09-20T08:10:08.964Z,101406.91
2022-09-20T08:15:21.282Z,101399.84
2022-09-20T08:17:47.405Z,101395.38
2022-09-20T08:20:13.568Z,101395.06
2022-09-20T08:22:39.713Z,101393.34
2022-09-20T08:25:05.862Z,101399.47
2022-09-20T08:27:31.990Z,101393.69
2022-09-20T08:29:58.114Z,101401.41
2022-09-20T08:32:24.259Z,101399.16
2022-09-20T08:34:50.387Z,101401.53
2022-09-20T08:37:16.522Z,101393.91
2022-09-20T08:39:58.860Z,101399.38
2022-09-20T08:42:25.370Z,101397.13
2022-09-20T08:44:59.156Z,101398.47
2022-09-20T08:47:25.516Z,101392.06
2022-09-20T08:49:56.997Z,101398.28
2022-09-20T08:52:23.361Z,101399.44
2022-09-20T08:54:49.517Z,101399.50
2022-09-20T08:57:15.653Z,101396.47
2022-09-20T08:59:41.799Z,101389.66
2022-09-20T09:02:07.950Z,101392.59
2022-09-20T09:04:34.130Z,101388.72
2022-09-20T09:07:00.275Z,101389.94
2022-09-20T09:09:26.415Z,101387.97
2022-09-20T09:11:52.524Z,101387.91
2022-09-20T09:14:18.675Z,101391.44
2022-09-20T09:16:44.844Z,101389.97
2022-09-20T09:19:11.028Z,101397.88
2022-09-20T09:21:37.144Z,101404.16
2022-09-20T09:24:03.306Z,101398.00
2022-09-20T09:26:29.470Z,101394.03
2022-09-20T09:28:55.639Z,101392.56
2022-09-20T09:31:21.851Z,101396.16
2022-09-20T09:33:48.015Z,101389.00
2022-09-20T09:36:14.185Z,101390.53
2022-09-20T09:38:40.327Z,101386.31
2022-09-20T09:41:06.465Z,101386.78
2022-09-20T09:43:32.566Z,101377.16
2022-09-20T09:45:58.732Z,101385.03
2022-09-20T09:48:24.923Z,101382.47
2022-09-20T09:50:51.042Z,101383.09
2022-09-20T09:53:17.195Z,101379.84
2022-09-20T09:55:43.328Z,101375.66
2022-09-20T09:58:09.446Z,101372.66
2022-09-20T10:00:35.586Z,101374.28
2022-09-20T10:03:01.736Z,101373.63
2022-09-20T10:05:27.877Z,101366.72
2022-09-20T10:07:54.023Z,101372.81
2022-09-20T10:10:20.152Z,101369.63
2022-09-20T10:12:52.100Z,101371.78
2022-09-20T10:15:18.478Z,101376.44
2022-09-20T10:17:44.642Z,101377.53
2022-09-20T10:20:10.788Z,101374.16
2022-09-20T10:22:36.925Z,101375.41
2022-09-20T10:25:03.078Z,101372.13
2022-09-20T10:27:29.952Z,101373.97
2022-09-20T10:29:56.071Z,101365.31
2022-09-20T10:32:22.214Z,101371.41
2022-09-20T10:34:48.378Z,101368.41
2022-09-20T10:37:14.522Z,101368.28
2022-09-20T10:39:40.659Z,101370.81
2022-09-20T10:42:06.813Z,101371.63
2022-09-20T10:44:32.951Z,101367.94
2022-09-20T10:46:59.150Z,101368.66
2022-09-20T10:49:25.328Z,101373.75
2022-09-20T10:51:51.597Z,101372.84
2022-09-20T10:54:17.713Z,101367.34
2022-09-20T10:56:43.887Z,101364.41
2022-09-20T10:59:10.008Z,101362.72
2022-09-20T11:01:36.309Z,101358.47
2022-09-20T11:04:02.446Z,101356.56
2022-09-20T11:06:28.573Z,101361.91
2022-09-20T11:08:54.713Z,101359.50
2022-09-20T11:11:20.843Z,101345.53
2022-09-20T11:13:50.034Z,101360.47
2022-09-20T11:16:16.286Z,101357.91
2022-09-20T11:18:42.449Z,101351.63
2022-09-20T11:21:08.608Z,101364.72
2022-09-20T11:23:34.713Z,101361.03
2022-09-20T11:26:00.825Z,101368.16
2022-09-20T11:28:26.984Z,101379.75
2022-09-20T11:30:53.456Z,101379.66
2022-09-20T11:33:19.630Z,101375.28
2022-09-20T11:35:45.780Z,101378.47
2022-09-20T11:38:11.927Z,101381.44
2022-09-20T11:40:38.174Z,101380.72
2022-09-20T11:43:04.372Z,101381.38
2022-09-20T11:45:30.564Z,101381.19
2022-09-20T11:47:56.751Z,101379.13
2022-09-20T11:50:22.864Z,101380.50
2022-09-20T11:52:49.014Z,101381.91
2022-09-20T11:55:15.159Z,101372.66
2022-09-20T11:57:41.294Z,101382.53
2022-09-20T12:00:07.427Z,101379.59
2022-09-20T12:02:33.652Z,101365.84
2022-09-20T12:05:01.938Z,101367.88
2022-09-20T12:07:28.095Z,101367.97
2022-09-20T12:09:55.247Z,101370.84
2022-09-20T12:12:21.382Z,101366.94
2022-09-20T12:14:47.553Z,101354.06
2022-09-20T12:17:13.671Z,101358.13
2022-09-20T12:19:39.805Z,101357.66
2022-09-20T12:22:05.950Z,101366.72
2022-09-20T12:24:32.081Z,101361.47
2022-09-20T12:26:59.096Z,101355.22
2022-09-20T12:29:25.261Z,101357.16
2022-09-20T12:31:51.438Z,101358.13
2022-09-20T12:34:17.605Z,101357.31
2022-09-20T12:36:43.771Z,101356.78
2022-09-20T12:39:17.558Z,101357.00
2022-09-20T12:41:45.321Z,101354.13
2022-09-20T12:44:11.456Z,101345.84
2022-09-20T12:46:37.632Z,101349.47
2022-09-20T12:49:03.753Z,101345.25
2022-09-20T12:51:29.979Z,101346.53
2022-09-20T12:53:56.124Z,101340.44
2022-09-20T12:56:22.311Z,101338.22
2022-09-20T12:58:48.435Z,101340.97
2022-09-20T13:01:14.931Z,101332.63
2022-09-20T13:03:41.138Z,101333.81
2022-09-20T13:06:07.352Z,101331.09
2022-09-20T13:08:33.547Z,101323.78
2022-09-20T13:10:59.692Z,101318.06
2022-09-20T13:13:25.833Z,101321.66
2022-09-20T13:15:51.972Z,101318.78
2022-09-20T13:18:18.130Z,101322.50
2022-09-20T13:20:44.288Z,101323.31
2022-09-20T13:23:10.423Z,101312.28
2022-09-20T13:25:36.537Z,101312.75
2022-09-20T13:28:02.699Z,101320.66
2022-09-20T13:30:28.839Z,101320.00
2022-09-20T13:32:54.943Z,101321.94
2022-09-20T13:35:21.104Z,101330.72
2022-09-20T13:37:47.222Z,101332.19
2022-09-20T13:40:13.456Z,101320.97
2022-09-20T13:42:39.760Z,101325.47
2022-09-20T13:45:05.958Z,101329.03
2022-09-20T13:47:32.097Z,101318.00
2022-09-20T13:49:58.209Z,101324.63
2022-09-20T13:52:24.332Z,101326.66
2022-09-20T13:54:50.493Z,101325.25
2022-09-20T13:57:16.627Z,101323.81
2022-09-20T13:59:42.791Z,101326.38
2022-09-20T14:02:08.948Z,101324.09
2022-09-20T14:04:37.174Z,101329.56
2022-09-20T14:07:03.319Z,101329.25
2022-09-20T14:09:29.438Z,101325.41
2022-09-20T14:11:55.601Z,101323.25
2022-09-20T14:14:22.451Z,101325.28
2022-09-20T14:16:48.693Z,101332.56
2022-09-20T14:19:14.821Z,101322.25
2022-09-20T14:21:40.945Z,101322.50
2022-09-20T14:24:07.048Z,101319.88
2022-09-20T14:26:33.185Z,101323.81
2022-09-20T14:28:59.315Z,101320.31
2022-09-20T14:31:25.493Z,101316.41
2022-09-20T14:33:54.980Z,101310.03
2022-09-20T14:36:21.505Z,101318.78
2022-09-20T14:38:49.316Z,101315.78
2022-09-20T14:41:15.461Z,101312.28
2022-09-20T14:43:41.578Z,101313.44
2022-09-20T14:46:07.765Z,101310.91
2022-09-20T14:48:33.923Z,101313.16
2022-09-20T14:51:00.039Z,101309.56
2022-09-20T14:53:26.194Z,101315.56
2022-09-20T14:55:52.333Z,101316.34
2022-09-20T14:58:18.493Z,101308.44
2022-09-20T15:00:44.629Z,101302.94
2022-09-20T15:03:10.797Z,101314.84
2022-09-20T15:05:36.976Z,101317.06
2022-09-20T15:08:03.108Z,101310.81
2022-09-20T15:10:29.330Z,101309.53
2022-09-20T15:12:55.466Z,101309.28
2022-09-20T15:15:21.684Z,101308.59
2022-09-20T15:17:47.837Z,101305.94
2022-09-20T15:20:13.980Z,101304.00
2022-09-20T15:22:40.099Z,101302.94
2022-09-20T15:25:06.262Z,101312.19
2022-09-20T15:27:35.235Z,101311.09
2022-09-20T15:30:01.384Z,101315.91
2022-09-20T15:32:27.611Z,101307.50
2022-09-20T15:34:53.754Z,101306.91
2022-09-20T15:37:19.922Z,101313.19
2022-09-20T15:39:46.063Z,101313.28
2022-09-20T15:42:12.195Z,101317.22
2022-09-20T15:44:38.346Z,101312.63
2022-09-20T15:47:07.658Z,101311.41
2022-09-20T15:49:33.775Z,101312.03
2022-09-20T15:51:59.920Z,101319.13
2022-09-20T15:54:26.033Z,101319.44
2022-09-20T15:56:52.159Z,101318.66
2022-09-20T15:59:19.384Z,101313.34
2022-09-20T16:01:45.549Z,101315.25
2022-09-20T16:04:11.667Z,101311.31
2022-09-20T16:06:37.797Z,101304.31
2022-09-20T16:09:03.957Z,101311.09
2022-09-20T16:11:30.078Z,101305.44
2022-09-20T16:13:56.258Z,101309.09
2022-09-20T16:16:22.503Z,101310.94
2022-09-20T16:18:48.632Z,101316.03
2022-09-20T16:21:14.764Z,101311.84
2022-09-20T16:23:40.901Z,101310.16
2022-09-20T16:26:07.039Z,101319.88
2022-09-20T16:28:33.192Z,101327.22
2022-09-20T16:30:59.321Z,101333.50
2022-09-20T16:33:25.494Z,101326.69
2022-09-20T16:35:51.691Z,101330.38
2022-09-20T16:38:17.840Z,101333.94
2022-09-20T16:40:43.991Z,101332.16
2022-09-20T16:43:10.215Z,101328.91
2022-09-20T16:45:39.522Z,101327.97
2022-09-20T16:48:08.607Z,101326.38
2022-09-20T16:50:34.961Z,101330.13
2022-09-20T16:53:01.114Z,101335.75
2022-09-20T16:55:27.299Z,101327.31
2022-09-20T16:57:53.452Z,101331.09
2022-09-20T17:00:19.602Z,101334.09
2022-09-20T17:02:47.864Z,101337.88
2022-09-20T17:05:14.179Z,101338.06
2022-09-20T17:07:40.423Z,101340.28
2022-09-20T17:10:07.705Z,101346.53
2022-09-20T17:12:33.850Z,101348.56
2022-09-20T17:14:59.991Z,101350.53
2022-09-20T17:17:26.132Z,101349.84
2022-09-20T17:19:53.470Z,101358.13
2022-09-20T17:22:19.806Z,101353.16
2022-09-20T17:24:46.004Z,101355.22
2022-09-20T17:27:12.244Z,101355.47
2022-09-20T17:29:40.482Z,101357.56
2022-09-20T17:32:06.666Z,101356.28
2022-09-20T17:34:35.435Z,101362.63
2022-09-20T17:37:01.606Z,101369.22
2022-09-20T17:39:29.906Z,101371.25
2022-09-20T17:41:56.149Z,101377.75
2022-09-20T17:44:22.344Z,101380.72
2022-09-20T17:46:48.823Z,101386.53
2022-09-20T17:49:17.189Z,101386.03
2022-09-20T17:51:43.318Z,101390.69
2022-09-20T17:54:09.460Z,101386.72
2022-09-20T17:56:36.721Z,101387.00
2022-09-20T17:59:03.061Z,101386.34
2022-09-20T18:01:29.215Z,101396.19
2022-09-20T18:03:55.465Z,101398.13
2022-09-20T18:06:21.650Z,101405.22
2022-09-20T18:08:47.818Z,101397.63
2022-09-20T18:11:14.145Z,101405.66
2022-09-20T18:13:40.345Z,101405.81
2022-09-20T18:16:09.343Z,101406.91
2022-09-20T18:18:35.497Z,101416.69
2022-09-20T18:21:01.629Z,101410.66
2022-09-20T18:23:27.774Z,101412.22
2022-09-20T18:25:54.027Z,101422.50
2022-09-20T18:28:21.224Z,101421.03
2022-09-20T18:30:47.366Z,101430.56
2022-09-20T18:33:13.536Z,101434.56
2022-09-20T18:35:39.747Z,101429.63
2022-09-20T18:38:12.027Z,101427.28
2022-09-20T18:40:38.519Z,101423.97
2022-09-20T18:43:04.980Z,101435.53
2022-09-20T18:45:31.241Z,101439.88
2022-09-20T18:47:59.468Z,101439.34
2022-09-20T18:50:26.302Z,101440.44
2022-09-20T18:52:52.433Z,101443.97
2022-09-20T18:55:18.648Z,101444.06
2022-09-20T18:57:44.801Z,101452.97
2022-09-20T19:00:10.936Z,101459.91
2022-09-20T19:02:37.074Z,101461.75
2022-09-20T19:05:03.389Z,101467.88
2022-09-20T19:07:29.553Z,101464.59
2022-09-20T19:09:55.878Z,101477.59
2022-09-20T19:12:22.076Z,101475.97
2022-09-20T19:14:48.226Z,101484.06
2022-09-20T19:17:14.388Z,101482.75
2022-09-20T19:19:40.546Z,101489.00
2022-09-20T19:22:06.665Z,101495.19
2022-09-20T19:24:33.079Z,101498.91
2022-09-20T19:26:59.416Z,101507.59
2022-09-20T19:29:25.631Z,101506.81
2022-09-20T19:31:51.832Z,101506.81
2022-09-20T19:34:18.022Z,101515.56
2022-09-20T19:36:44.204Z,101520.03
2022-09-20T19:39:10.377Z,101511.28
2022-09-20T19:41:36.833Z,101517.53
2022-09-20T19:44:02.988Z,101513.38
2022-09-20T19:46:29.197Z,101520.25
2022-09-20T19:48:55.331Z,101516.97
2022-09-20T19:51:21.480Z,101516.16
2022-09-20T19:53:47.634Z,101524.06
2022-09-20T19:56:13.742Z,101521.50
2022-09-20T19:58:39.900Z,101515.44
2022-09-20T20:01:06.082Z,101518.84
2022-09-20T20:03:32.221Z,101523.13
2022-09-20T20:05:58.407Z,101519.66
2022-09-20T20:08:24.566Z,101528.50
2022-09-20T20:10:50.685Z,101527.78
2022-09-20T20:13:16.842Z,101518.50
2022-09-20T20:15:42.993Z,101533.34
2022-09-20T20:18:11.350Z,101527.38
2022-09-20T20:20:40.718Z,101531.75
2022-09-20T20:23:06.884Z,101531.13
2022-09-20T20:25:33.025Z,101527.75
2022-09-20T20:27:59.195Z,101533.06
2022-09-20T20:30:25.347Z,101537.34
2022-09-20T20:32:51.502Z,101533.84
2022-09-20T20:35:17.654Z,101535.59
2022-09-20T20:37:43.805Z,101532.19
2022-09-20T20:40:10.182Z,101531.41
2022-09-20T20:42:36.328Z,101538.38
2022-09-20T20:45:02.500Z,101524.44
2022-09-20T20:47:28.656Z,101523.53
2022-09-20T20:49:54.788Z,101528.88
2022-09-20T20:52:20.964Z,101535.66
2022-09-20T20:54:47.088Z,101539.00
2022-09-20T20:57:13.212Z,101540.72
2022-09-20T20:59:39.360Z,101545.81
2022-09-20T21:02:07.943Z,101548.34
2022-09-20T21:04:34.372Z,101546.63
2022-09-20T21:07:00.509Z,101545.81
2022-09-20T21:09:26.690Z,101551.84
2022-09-20T21:11:52.919Z,101550.91
2022-09-20T21:14:19.332Z,101553.41
2022-09-20T21:16:45.490Z,101549.91
2022-09-20T21:19:11.603Z,101550.78
2022-09-20T21:21:37.726Z,101555.03
2022-09-20T21:24:03.887Z,101549.72
2022-09-20T21:26:30.029Z,101547.91
2022-09-20T21:28:56.163Z,101550.47
2022-09-20T21:31:22.398Z,101547.91
2022-09-20T21:33:48.702Z,101547.06
2022-09-20T21:36:14.891Z,101554.03
2022-09-20T21:38:41.060Z,101551.41
2022-09-20T21:41:07.229Z,101550.50
2022-09-20T21:43:33.366Z,101549.81
2022-09-20T21:45:59.597Z,101548.16
2022-09-20T21:48:25.755Z,101543.91
2022-09-20T21:50:51.870Z,101544.06
2022-09-20T21:53:18.033Z,101549.41
2022-09-20T21:55:44.224Z,101552.06
2022-09-20T21:58:10.428Z,101547.75
2022-09-20T22:00:36.555Z,101552.88
2022-09-20T22:03:02.808Z,101550.44
2022-09-20T22:05:28.976Z,101551.44
2022-09-20T22:07:55.081Z,101555.00
2022-09-20T22:10:21.213Z,101560.25
2022-09-20T22:12:47.384Z,101559.50
2022-09-20T22:15:13.532Z,101561.16
2022-09-20T22:17:39.817Z,101558.47
2022-09-20T22:20:05.974Z,101567.31
2022-09-20T22:22:32.109Z,101566.47
2022-09-20T22:24:58.237Z,101564.88
2022-09-20T22:27:24.425Z,101563.13
2022-09-20T22:29:50.556Z,101555.41
2022-09-20T22:32:16.748Z,101562.44
2022-09-20T22:34:42.886Z,101555.56
2022-09-20T22:37:09.013Z,101557.44
2022-09-20T22:39:35.162Z,101554.13
2022-09-20T22:42:01.296Z,101559.56
2022-09-20T22:44:27.454Z,101554.41
2022-09-20T22:46:53.794Z,101551.84
2022-09-20T22:49:19.926Z,101551.81
2022-09-20T22:51:46.056Z,101552.06
2022-09-20T22:54:12.248Z,101557.34
2022-09-20T22:56:38.394Z,101555.66
2022-09-20T22:59:04.576Z,101557.38
2022-09-20T23:01:30.753Z,101564.41
2022-09-20T23:03:57.118Z,101573.16
2022-09-20T23:06:23.368Z,101565.44
2022-09-20T23:08:49.513Z,101568.97
2022-09-20T23:11:15.741Z,101568.03
2022-09-20T23:13:41.955Z,101565.59
2022-09-20T23:16:08.141Z,101563.00
2022-09-20T23:18:34.279Z,101563.13
2022-09-20T23:21:00.396Z,101558.97
2022-09-20T23:23:27.474Z,101560.63
2022-09-20T23:25:53.704Z,101562.69
2022-09-20T23:28:19.854Z,101556.59
2022-09-20T23:30:46.032Z,101567.03
2022-09-20T23:33:12.186Z,101564.41
2022-09-20T23:35:38.318Z,101572.16
2022-09-20T23:38:04.460Z,101563.59
2022-09-20T23:40:30.665Z,101561.09
2022-09-20T23:42:56.811Z,101558.56
2022-09-20T23:45:23.016Z,101565.56
2022-09-20T23:47:49.163Z,101566.44
2022-09-20T23:50:15.302Z,101565.63
2022-09-20T23:52:41.417Z,101562.28
2022-09-20T23:55:07.663Z,101561.53
2022-09-20T23:57:33.842Z,101558.19
2022-09-20T23:59:59.970Z,101562.53
